Time;durP1;ratioP1;P1;durP2;ratioP2;P2;SDS_P1;SDS_P2;PMS_P1;PMS_P2;Temp;Humidity;BMP_temperature;BMP_pressure;BME280_temperature;BME280_humidity;BME280_pressure;Samples;Min_cycle;Max_cycle;Signal;HPM_P1;HPM_P2
2022/02/03 00:01:04;;;;;;;5.97;5.37;;;9.70;99.90;;;;;;5044195;28;20443;-70
2022/02/03 00:03:42;;;;;;;6.90;6.20;;;9.80;99.90;;;;;;5044534;28;20424;-71
2022/02/03 00:06:13;;;;;;;5.00;4.60;;;9.70;99.90;;;;;;5043000;28;20434;-70
2022/02/03 00:25:03;;;;;;;6.87;6.37;;;9.80;99.90;;;;;;5043809;28;20883;-71
2022/02/03 00:30:12;;;;;;;6.07;5.50;;;9.60;99.90;;;;;;5043579;28;20558;-70
2022/02/03 00:49:00;;;;;;;6.90;6.17;;;9.70;99.90;;;;;;5043923;28;20960;-71
2022/02/03 00:51:27;;;;;;;8.57;7.67;;;9.80;99.90;;;;;;5043567;28;20971;-71
2022/02/03 00:53:56;;;;;;;7.23;6.63;;;9.80;99.90;;;;;;5043641;28;20499;-70
2022/02/03 00:56:25;;;;;;;6.40;5.80;;;9.80;99.90;;;;;;5042847;28;20492;-70
2022/02/03 00:59:09;;;;;;;7.77;7.00;;;9.70;99.90;;;;;;5043726;28;20417;-70
2022/02/03 01:01:37;;;;;;;6.50;5.90;;;9.60;99.90;;;;;;5042033;28;20444;-70
2022/02/03 01:04:14;;;;;;;6.90;6.30;;;9.70;99.90;;;;;;5043433;28;20795;-70
2022/02/03 01:06:47;;;;;;;5.57;5.07;;;9.80;99.90;;;;;;5025554;28;20464;-70
2022/02/03 01:09:17;;;;;;;7.23;6.63;;;9.80;99.90;;;;;;5043347;28;20936;-70
2022/02/03 01:11:58;;;;;;;7.00;5.97;;;9.80;99.90;;;;;;5043312;28;20460;-71
2022/02/03 01:14:35;;;;;;;6.40;5.90;;;9.90;99.90;;;;;;5043200;28;20411;-72
2022/02/03 01:43:55;;;;;;;5.63;5.13;;;9.90;99.90;;;;;;5046540;28;20464;-70
2022/02/03 01:46:41;;;;;;;5.27;4.77;;;9.90;99.90;;;;;;5046576;28;20425;-70
2022/02/03 01:49:14;;;;;;;5.97;5.47;;;10.00;99.90;;;;;;5046414;28;20451;-70
2022/02/03 01:51:56;;;;;;;4.87;4.37;;;9.90;99.90;;;;;;5046343;28;21002;-71
2022/02/03 01:54:28;;;;;;;6.33;4.80;;;10.00;99.90;;;;;;5046821;28;20405;-70
2022/02/03 01:57:10;;;;;;;5.40;4.90;;;10.00;99.90;;;;;;5045856;28;20508;-71
2022/02/03 01:59:37;;;;;;;5.30;4.80;;;10.00;99.90;;;;;;5046344;28;20873;-70
2022/02/03 02:02:07;;;;;;;6.57;5.80;;;10.00;99.90;;;;;;5048151;28;20414;-71
2022/02/03 02:04:47;;;;;;;5.40;4.90;;;9.90;99.90;;;;;;5047046;28;20405;-71
2022/02/03 02:07:19;;;;;;;4.90;4.37;;;10.00;99.90;;;;;;5046445;28;20440;-72
2022/02/03 02:12:57;;;;;;;4.80;4.40;;;9.90;99.90;;;;;;5041915;28;20477;-72
2022/02/03 02:18:56;;;;;;;6.53;5.93;;;9.70;99.90;;;;;;5027545;28;20413;-75
2022/02/03 02:38:14;;;;;;;4.40;4.03;;;9.60;99.90;;;;;;5035111;28;20490;-73
2022/02/03 02:44:00;;;;;;;5.37;4.57;;;9.70;99.90;;;;;;5035038;28;20512;-73
2022/02/03 02:46:50;;;;;;;5.70;5.20;;;9.80;99.90;;;;;;4979466;28;20474;-76
2022/02/03 02:49:46;;;;;;;5.80;5.27;;;9.70;99.90;;;;;;5038336;28;20424;-72
2022/02/03 02:52:19;;;;;;;6.10;4.77;;;9.70;99.90;;;;;;5038211;28;20533;-74
2022/02/03 03:00:39;;;;;;;4.90;4.40;;;9.70;99.90;;;;;;5025344;28;20521;-73
2022/02/03 03:04:04;;;;;;;6.73;5.40;;;9.50;99.90;;;;;;5041119;28;21648;-76
2022/02/03 03:34:14;;;;;;;7.30;6.57;;;9.40;99.90;;;;;;5034337;28;20406;-73
2022/02/03 03:36:44;;;;;;;5.03;4.63;;;9.50;99.90;;;;;;5032386;28;20410;-73
2022/02/03 03:39:13;;;;;;;7.40;5.80;;;9.60;99.90;;;;;;5038581;28;20893;-72
2022/02/03 03:41:44;;;;;;;6.47;5.80;;;9.50;99.90;;;;;;5026904;28;20432;-71
2022/02/03 03:44:14;;;;;;;6.13;5.63;;;9.40;99.90;;;;;;5033944;28;20413;-74
2022/02/03 03:46:40;;;;;;;5.60;5.10;;;9.40;99.90;;;;;;5011958;28;20432;-75
2022/02/03 03:49:06;;;;;;;7.00;6.10;;;9.30;99.90;;;;;;5011813;28;20424;-75
2022/02/03 03:51:44;;;;;;;5.87;5.37;;;9.30;99.90;;;;;;5021373;28;20464;-73
2022/02/03 03:54:16;;;;;;;6.77;6.10;;;9.30;99.90;;;;;;5013620;28;20450;-71
2022/02/03 04:29:18;;;;;;;5.80;5.30;;;9.00;99.90;;;;;;5032922;28;20417;-74
2022/02/03 04:40:52;;;;;;;6.80;6.00;;;9.20;99.90;;;;;;5031404;28;20421;-74
2022/02/03 04:56:36;;;;;;;5.33;4.93;;;9.30;99.90;;;;;;5011001;28;20415;-74
2022/02/03 05:02:58;;;;;;;6.07;5.47;;;9.30;99.90;;;;;;5032508;28;20413;-73
2022/02/03 05:06:09;;;;;;;7.50;6.70;;;9.20;99.90;;;;;;5017956;28;20482;-73
2022/02/03 05:10:06;;;;;;;5.70;5.20;;;9.20;99.90;;;;;;5028492;28;20411;-75
2022/02/03 06:03:50;;;;;;;8.53;7.57;;;8.40;99.90;;;;;;5034513;28;20457;-74
2022/02/03 06:14:21;;;;;;;8.87;8.07;;;8.30;99.90;;;;;;5038283;28;20475;-75
2022/02/03 06:22:25;;;;;;;7.27;6.57;;;8.40;99.90;;;;;;5045201;28;21065;-74
2022/02/03 06:29:55;;;;;;;18.87;15.63;;;8.40;99.90;;;;;;5037961;28;20420;-76
2022/02/03 06:32:21;;;;;;;15.93;11.30;;;8.40;99.90;;;;;;5038907;28;20455;-75
2022/02/03 06:34:46;;;;;;;8.90;8.10;;;8.50;99.90;;;;;;5037839;28;21526;-73
2022/02/03 06:37:12;;;;;;;8.90;8.00;;;8.70;99.90;;;;;;5032300;28;20952;-70
2022/02/03 06:39:38;;;;;;;7.50;6.80;;;8.70;99.90;;;;;;5041874;28;20232;-75
2022/02/03 06:42:05;;;;;;;9.23;8.27;;;8.80;99.90;;;;;;5026561;28;20600;-76
2022/02/03 06:44:43;;;;;;;12.50;11.40;;;8.70;99.90;;;;;;5010213;28;20640;-74
2022/02/03 06:47:24;;;;;;;15.67;14.07;;;8.80;99.90;;;;;;5017164;28;20433;-74
2022/02/03 06:52:45;;;;;;;9.00;8.17;;;9.00;99.90;;;;;;5038626;28;20467;-73
2022/02/03 06:57:47;;;;;;;9.90;8.90;;;8.90;99.90;;;;;;5036721;28;20435;-73
2022/02/03 07:01:00;;;;;;;9.20;7.40;;;9.10;99.90;;;;;;5020531;28;20476;-73
2022/02/03 07:03:05;;;;;;;11.20;9.70;;;9.10;99.90;;;;;;5027149;28;20413;-74
2022/02/03 07:05:30;;;;;;;13.83;11.80;;;9.10;99.90;;;;;;5035016;28;20548;-72
2022/02/03 07:07:56;;;;;;;12.00;10.97;;;9.20;99.90;;;;;;5038423;28;20500;-75
2022/02/03 07:10:23;;;;;;;6.40;5.80;;;9.30;99.90;;;;;;5029071;28;20269;-73
2022/02/03 07:12:48;;;;;;;8.17;7.37;;;9.30;99.90;;;;;;5038202;28;20201;-72
2022/02/03 07:15:14;;;;;;;8.90;8.10;;;9.20;99.90;;;;;;5034192;28;20420;-76
2022/02/03 07:17:40;;;;;;;9.20;8.30;;;9.30;99.90;;;;;;5035460;28;20188;-75
2022/02/03 07:20:09;;;;;;;10.17;9.07;;;9.40;99.90;;;;;;5035485;28;21610;-75
2022/02/03 07:22:35;;;;;;;9.33;8.43;;;9.40;99.90;;;;;;5039314;28;20433;-74
2022/02/03 07:25:02;;;;;;;11.90;10.67;;;9.50;99.90;;;;;;5037997;28;20425;-73
2022/02/03 07:27:28;;;;;;;12.43;11.23;;;9.50;99.90;;;;;;5038997;28;20193;-73
2022/02/03 07:29:54;;;;;;;8.33;7.53;;;9.60;99.90;;;;;;5039549;28;21089;-72
2022/02/03 07:32:22;;;;;;;8.63;7.80;;;9.70;99.90;;;;;;5016700;28;20494;-73
2022/02/03 07:34:51;;;;;;;8.00;7.27;;;9.80;99.90;;;;;;5042446;28;20417;-73
2022/02/03 07:37:17;;;;;;;7.47;6.67;;;9.70;99.90;;;;;;5026888;28;20435;-76
2022/02/03 07:39:43;;;;;;;7.70;7.00;;;9.80;99.90;;;;;;5045094;28;20413;-73
2022/02/03 07:42:09;;;;;;;9.00;8.10;;;9.80;99.90;;;;;;5044959;28;20440;-72
2022/02/03 07:44:34;;;;;;;8.47;6.33;;;9.90;99.90;;;;;;5021747;28;20525;-74
2022/02/03 07:47:00;;;;;;;8.40;7.47;;;9.90;99.90;;;;;;5024712;28;20475;-73
2022/02/03 07:49:29;;;;;;;8.30;7.50;;;10.10;99.90;;;;;;5035359;28;20191;-72
2022/02/03 07:51:55;;;;;;;8.00;7.20;;;10.10;99.90;;;;;;5023060;28;20257;-72
2022/02/03 07:54:20;;;;;;;7.23;6.53;;;10.20;99.90;;;;;;5036070;28;20413;-73
2022/02/03 07:56:46;;;;;;;7.20;6.53;;;10.10;99.90;;;;;;5035798;28;20255;-70
2022/02/03 07:59:12;;;;;;;7.90;7.20;;;10.20;99.90;;;;;;5035756;28;20663;-75
2022/02/03 08:01:37;;;;;;;7.27;6.67;;;10.30;99.90;;;;;;5029267;28;20708;-71
2022/02/03 08:04:06;;;;;;;6.40;5.90;;;10.30;99.90;;;;;;5036496;28;20184;-75
2022/02/03 08:06:35;;;;;;;6.43;5.83;;;10.20;99.90;;;;;;5036511;28;20700;-72
2022/02/03 08:09:07;;;;;;;8.17;6.57;;;10.30;99.90;;;;;;5038190;28;20903;-73
2022/02/03 08:11:38;;;;;;;7.00;6.30;;;10.30;99.90;;;;;;5047492;22;20497;-72
2022/02/03 08:14:12;;;;;;;6.30;5.70;;;10.40;99.90;;;;;;5024151;28;20821;-72
2022/02/03 08:16:43;;;;;;;6.70;6.03;;;10.40;99.90;;;;;;5023252;28;20408;-73
2022/02/03 08:19:16;;;;;;;5.70;5.20;;;10.50;99.90;;;;;;5024022;28;20395;-73
2022/02/03 08:21:46;;;;;;;5.80;5.30;;;10.60;99.90;;;;;;5024284;28;20443;-75
2022/02/03 08:24:22;;;;;;;6.63;6.00;;;10.50;99.90;;;;;;5022325;28;20421;-75
2022/02/03 08:31:54;;;;;;;5.50;4.80;;;10.80;99.90;;;;;;5023735;28;20609;-73
2022/02/03 08:37:06;;;;;;;6.10;5.50;;;11.00;99.90;;;;;;5003142;28;20418;-74
2022/02/03 08:39:38;;;;;;;5.70;5.20;;;11.00;99.90;;;;;;5025761;28;20423;-73
2022/02/03 08:42:04;;;;;;;4.60;4.20;;;11.20;99.90;;;;;;5024620;28;20665;-73
2022/02/03 08:44:29;;;;;;;4.03;3.73;;;11.30;99.90;;;;;;5027327;28;20910;-73
2022/02/03 08:46:55;;;;;;;4.20;3.60;;;11.40;99.90;;;;;;5024610;28;20493;-73
2022/02/03 08:49:23;;;;;;;4.67;4.27;;;11.50;99.90;;;;;;5023152;28;20186;-73
2022/02/03 08:51:50;;;;;;;3.80;3.50;;;11.50;99.90;;;;;;5023779;28;20195;-74
2022/02/03 08:54:16;;;;;;;3.70;3.40;;;11.60;99.90;;;;;;5024014;28;20417;-75
2022/02/03 09:30:58;;;;;;;3.87;3.57;;;11.10;99.90;;;;;;5023446;28;20393;-76
2022/02/03 09:58:15;;;;;;;3.20;2.90;;;10.40;99.90;;;;;;5026138;28;20990;-74
2022/02/03 10:00:50;;;;;;;2.90;2.70;;;10.50;99.90;;;;;;5026071;28;20447;-73
2022/02/03 10:03:20;;;;;;;2.50;2.30;;;10.60;99.90;;;;;;5027034;28;20418;-73
2022/02/03 10:06:12;;;;;;;2.43;2.23;;;10.70;99.90;;;;;;5027318;28;20399;-74
2022/02/03 10:08:49;;;;;;;2.57;2.37;;;11.10;99.90;;;;;;5028004;28;20487;-74
2022/02/03 10:11:24;;;;;;;2.03;1.93;;;10.80;99.90;;;;;;5027516;28;20465;-74
2022/02/03 10:13:56;;;;;;;2.87;2.60;;;10.90;99.90;;;;;;5027738;28;20409;-74
2022/02/03 10:16:26;;;;;;;3.93;3.30;;;10.90;99.90;;;;;;5026674;28;20421;-75
2022/02/03 10:19:11;;;;;;;3.20;2.70;;;10.90;99.90;;;;;;5027428;28;20463;-74
2022/02/03 10:21:37;;;;;;;1.90;1.80;;;11.00;99.90;;;;;;5028058;28;20466;-75
2022/02/03 10:24:06;;;;;;;2.33;2.13;;;10.90;99.90;;;;;;5027731;28;20918;-73
2022/02/03 10:26:40;;;;;;;2.90;2.27;;;11.00;99.90;;;;;;5027136;28;20234;-74
2022/02/03 10:29:10;;;;;;;2.23;2.03;;;11.10;99.90;;;;;;5026775;28;20417;-76
2022/02/03 10:31:41;;;;;;;2.43;1.70;;;11.00;99.90;;;;;;5026625;28;21622;-80
2022/02/03 10:34:11;;;;;;;1.80;1.70;;;10.90;99.90;;;;;;5026668;28;20408;-80
2022/02/03 10:36:55;;;;;;;1.97;1.87;;;10.90;99.90;;;;;;5026216;28;20416;-73
2022/02/03 10:48:36;;;;;;;2.00;1.90;;;11.30;99.90;;;;;;4964775;28;20412;-78
2022/02/03 10:51:31;;;;;;;1.83;1.70;;;11.80;99.90;;;;;;5021459;28;20543;-77
2022/02/03 10:54:35;;;;;;;1.70;1.60;;;12.00;99.90;;;;;;5025497;28;20395;-74
2022/02/03 11:03:04;;;;;;;1.70;1.60;;;11.50;99.90;;;;;;5026207;28;20506;-73
2022/02/03 11:10:44;;;;;;;1.40;1.30;;;11.60;99.90;;;;;;5025142;28;20575;-76
2022/02/03 11:13:10;;;;;;;1.50;1.40;;;11.90;99.90;;;;;;5025772;28;20468;-74
2022/02/03 11:15:37;;;;;;;2.00;1.27;;;12.00;99.90;;;;;;5025079;28;20597;-74
2022/02/03 11:18:07;;;;;;;1.97;1.57;;;12.30;99.90;;;;;;5025077;28;20476;-72
2022/02/03 11:20:38;;;;;;;1.30;1.10;;;12.60;99.90;;;;;;5025481;28;20420;-73
2022/02/03 11:34:34;;;;;;;3.73;1.50;;;12.50;99.90;;;;;;5025647;28;20466;-74
2022/02/03 11:48:19;;;;;;;1.70;1.60;;;12.90;99.90;;;;;;5025062;28;20565;-74
2022/02/03 11:59:03;;;;;;;2.13;1.90;;;12.90;99.90;;;;;;5025173;28;20407;-74
2022/02/03 12:04:51;;;;;;;3.30;1.60;;;13.50;99.90;;;;;;5024819;28;20404;-73
2022/02/03 12:10:45;;;;;;;2.03;1.90;;;13.80;99.90;;;;;;5024866;28;20769;-76
2022/02/03 12:21:44;;;;;;;1.77;1.67;;;13.70;99.90;;;;;;5024581;28;20445;-73
2022/02/03 12:24:21;;;;;;;5.57;2.07;;;13.60;99.90;;;;;;5024249;28;20409;-76
2022/02/03 12:26:56;;;;;;;3.00;1.90;;;13.40;99.90;;;;;;5023425;28;20423;-71
2022/02/03 12:29:36;;;;;;;3.10;2.17;;;13.50;99.90;;;;;;5024414;28;20417;-77
2022/02/03 12:32:13;;;;;;;3.03;2.27;;;13.60;99.90;;;;;;5026500;28;20474;-72
2022/02/03 12:37:53;;;;;;;2.07;1.90;;;13.00;99.90;;;;;;5024970;28;20415;-73
2022/02/03 12:42:56;;;;;;;2.40;1.70;;;13.30;99.90;;;;;;5024862;28;20412;-74
2022/02/03 12:45:23;;;;;;;1.67;1.50;;;13.60;99.90;;;;;;5024632;28;20466;-74
2022/02/03 12:47:53;;;;;;;5.47;1.90;;;13.50;99.90;;;;;;5024287;28;20981;-75
2022/02/03 12:50:27;;;;;;;3.90;1.63;;;13.70;99.90;;;;;;5024188;28;20487;-75
2022/02/03 12:52:55;;;;;;;5.67;1.80;;;13.70;99.90;;;;;;5024691;28;20459;-75
2022/02/03 12:55:41;;;;;;;1.50;1.40;;;13.80;99.90;;;;;;5024097;28;20421;-74
2022/02/03 12:58:15;;;;;;;2.47;1.53;;;13.90;99.90;;;;;;5025166;28;20421;-73
2022/02/03 13:00:49;;;;;;;1.83;1.20;;;13.90;99.90;;;;;;5024454;28;20838;-73
2022/02/03 13:03:17;;;;;;;1.67;1.40;;;13.90;99.90;;;;;;5022414;28;20473;-75
2022/02/03 13:06:04;;;;;;;3.30;1.80;;;14.00;99.90;;;;;;5022563;28;20433;-75
2022/02/03 13:08:43;;;;;;;1.57;1.47;;;14.20;99.90;;;;;;5024025;28;20506;-79
2022/02/03 13:16:57;;;;;;;2.37;1.93;;;14.00;99.90;;;;;;5027577;28;20401;-74
2022/02/03 13:19:38;;;;;;;1.27;1.17;;;13.80;99.90;;;;;;5026637;28;20407;-76
2022/02/03 13:27:24;;;;;;;1.57;1.47;;;13.20;99.90;;;;;;5027404;28;20403;-73
2022/02/03 13:30:02;;;;;;;1.80;1.70;;;13.30;99.90;;;;;;5027281;28;20916;-72
2022/02/03 13:32:38;;;;;;;3.37;1.50;;;13.10;99.90;;;;;;5027325;28;20452;-73
2022/02/03 13:37:58;;;;;;;2.30;1.33;;;13.10;99.90;;;;;;5027912;28;20780;-74
2022/02/03 13:40:26;;;;;;;8.43;2.27;;;12.90;99.90;;;;;;5027395;28;20431;-75
2022/02/03 13:43:05;;;;;;;1.73;1.63;;;13.10;99.90;;;;;;5027572;28;20432;-77
2022/02/03 13:45:31;;;;;;;1.60;1.50;;;13.20;99.90;;;;;;5027271;28;20790;-73
2022/02/03 13:47:56;;;;;;;1.83;1.40;;;13.30;99.90;;;;;;5026176;28;20427;-74
2022/02/03 13:50:25;;;;;;;2.63;1.50;;;13.00;99.90;;;;;;5026342;28;20936;-77
2022/02/03 13:53:05;;;;;;;4.23;1.53;;;13.30;99.90;;;;;;5027165;28;20268;-74
2022/02/03 14:20:12;;;;;;;4.83;2.10;;;14.40;99.90;;;;;;5031222;28;20422;-71
2022/02/03 14:23:10;;;;;;;2.10;1.80;;;14.30;99.90;;;;;;5030539;28;20197;-73
2022/02/03 14:28:26;;;;;;;2.13;1.93;;;13.90;99.90;;;;;;5019223;28;20410;-71
2022/02/03 14:30:55;;;;;;;2.37;1.80;;;13.60;99.90;;;;;;5042823;28;20477;-72
2022/02/03 14:33:30;;;;;;;2.77;2.00;;;13.70;99.90;;;;;;5043844;28;20491;-72
2022/02/03 14:36:05;;;;;;;2.73;1.60;;;13.80;99.90;;;;;;5042917;28;20391;-72
2022/02/03 14:38:37;;;;;;;4.23;2.00;;;13.80;99.90;;;;;;5036115;28;20410;-72
2022/02/03 14:41:15;;;;;;;5.53;1.90;;;13.50;99.90;;;;;;5046555;28;20417;-70
2022/02/03 14:43:41;;;;;;;3.17;1.60;;;13.50;99.90;;;;;;5029578;28;20422;-72
2022/02/03 14:46:12;;;;;;;3.50;1.60;;;13.30;99.90;;;;;;5030318;28;20425;-72
2022/02/03 14:48:39;;;;;;;3.33;1.83;;;13.50;99.90;;;;;;5017311;28;20182;-73
2022/02/03 14:51:06;;;;;;;3.03;1.80;;;13.40;99.90;;;;;;5021237;28;20426;-71
2022/02/03 14:53:49;;;;;;;3.07;2.00;;;13.30;99.90;;;;;;5028300;28;20421;-75
2022/02/03 14:59:00;;;;;;;2.33;2.13;;;13.20;99.90;;;;;;5026940;28;20424;-73
2022/02/03 15:01:27;;;;;;;2.00;1.80;;;13.20;99.90;;;;;;5028033;28;20432;-77
2022/02/03 15:03:56;;;;;;;5.80;2.10;;;13.20;99.90;;;;;;5027339;28;20421;-71
2022/02/03 15:06:25;;;;;;;2.33;2.13;;;13.00;99.90;;;;;;5026513;28;20505;-70
2022/02/03 15:09:46;;;;;;;2.77;2.20;;;13.00;99.90;;;;;;5026992;28;20416;-71
2022/02/03 15:14:17;;;;;;;3.37;2.07;;;12.70;99.90;;;;;;5029031;28;20490;-71
2022/02/03 15:16:43;;;;;;;1.67;1.57;;;12.70;99.90;;;;;;5028484;28;20934;-70
2022/02/03 15:19:08;;;;;;;4.23;2.27;;;12.80;99.90;;;;;;5028934;28;20235;-71
2022/02/03 15:21:35;;;;;;;1.90;1.80;;;12.90;99.90;;;;;;5016274;28;20202;-71
2022/02/03 15:24:01;;;;;;;2.27;2.07;;;12.90;99.90;;;;;;5028294;28;20178;-70
2022/02/03 15:26:27;;;;;;;2.93;2.53;;;12.80;99.90;;;;;;5027289;28;20448;-70
2022/02/03 15:28:54;;;;;;;2.50;2.30;;;12.80;99.90;;;;;;5027442;28;21096;-71
2022/02/03 15:31:21;;;;;;;2.50;2.17;;;12.80;99.90;;;;;;5017019;28;20207;-72
2022/02/03 15:33:55;;;;;;;2.97;2.30;;;12.70;99.90;;;;;;5028512;28;20437;-71
2022/02/03 15:36:21;;;;;;;3.10;2.80;;;12.70;99.90;;;;;;5014036;28;20419;-70
2022/02/03 15:38:49;;;;;;;2.90;2.37;;;12.70;99.90;;;;;;5023602;28;20495;-71
2022/02/03 15:41:25;;;;;;;2.40;2.20;;;12.70;99.90;;;;;;5017359;28;20235;-69
2022/02/03 15:43:53;;;;;;;3.47;2.17;;;12.60;99.90;;;;;;5023850;28;20497;-71
2022/02/03 15:46:20;;;;;;;2.23;2.00;;;12.40;99.90;;;;;;5029979;28;20410;-71
2022/02/03 15:48:55;;;;;;;8.63;2.57;;;12.40;99.90;;;;;;5029403;28;20816;-70
2022/02/03 15:56:50;;;;;;;4.00;2.50;;;12.30;99.90;;;;;;5027708;28;20226;-71
2022/02/03 16:13:19;;;;;;;4.07;2.77;;;12.00;99.90;;;;;;4996787;28;20426;-70
2022/02/03 16:13:31;;;;;;;2.87;2.23;;;11.60;99.90;;;;;;5027296;28;20496;-71
2022/02/03 16:18:30;;;;;;;3.20;2.30;;;11.60;99.90;;;;;;5028743;28;20418;-70
2022/02/03 16:21:24;;;;;;;2.17;1.97;;;11.30;99.90;;;;;;5028099;28;20402;-70
2022/02/03 16:43:20;;;;;;;2.43;2.10;;;10.60;99.90;;;;;;5028063;28;20444;-71
2022/02/03 16:53:12;;;;;;;2.47;2.10;;;10.70;99.90;;;;;;5030884;28;20447;-71
2022/02/03 16:55:41;;;;;;;2.37;2.17;;;10.60;99.90;;;;;;5030752;28;20233;-69
2022/02/03 16:58:09;;;;;;;4.13;2.90;;;10.70;99.90;;;;;;5030610;28;20412;-70
2022/02/03 17:00:35;;;;;;;2.77;2.40;;;10.80;99.90;;;;;;5030116;28;20457;-70
2022/02/03 17:03:01;;;;;;;3.23;2.57;;;10.70;99.90;;;;;;5030849;28;20464;-71
2022/02/03 17:05:28;;;;;;;2.70;2.33;;;10.70;99.90;;;;;;5022057;28;20468;-71
2022/02/03 17:07:53;;;;;;;5.47;3.43;;;10.60;99.90;;;;;;5030712;28;20418;-70
2022/02/03 17:10:19;;;;;;;7.07;3.73;;;10.50;99.90;;;;;;5030109;28;20435;-70
2022/02/03 17:12:46;;;;;;;4.17;3.57;;;10.50;99.90;;;;;;5030481;28;20996;-71
2022/02/03 17:15:12;;;;;;;12.90;6.90;;;10.30;99.90;;;;;;5029271;28;20183;-71
2022/02/03 17:17:38;;;;;;;11.07;6.30;;;10.30;99.90;;;;;;5031422;28;20449;-71
2022/02/03 17:20:05;;;;;;;4.70;3.57;;;10.30;99.90;;;;;;5030206;28;20912;-70
2022/02/03 17:22:36;;;;;;;7.30;5.00;;;10.30;99.90;;;;;;5030417;28;20438;-69
2022/02/03 17:25:12;;;;;;;4.80;4.30;;;10.20;99.90;;;;;;5029720;28;20504;-72
2022/02/03 17:30:28;;;;;;;5.83;5.00;;;10.10;99.90;;;;;;5031199;28;20940;-72
2022/02/03 18:35:21;;;;;;;7.13;6.03;;;9.50;99.90;;;;;;5028558;28;20930;-71
2022/02/03 18:58:52;;;;;;;6.10;5.50;;;9.10;99.90;;;;;;5028127;28;20563;-70
2022/02/03 19:01:35;;;;;;;5.30;4.80;;;9.10;99.90;;;;;;5027209;28;20858;-70
2022/02/03 20:09:08;;;;;;;9.47;8.67;;;8.50;99.90;;;;;;4967516;28;20450;-71
2022/02/03 20:11:35;;;;;;;10.23;9.33;;;8.40;99.90;;;;;;5028024;28;20582;-69
2022/02/03 20:14:01;;;;;;;9.83;8.90;;;8.40;99.90;;;;;;5027814;28;20433;-70
2022/02/03 20:16:27;;;;;;;12.73;11.60;;;8.40;99.90;;;;;;5026922;28;20416;-71
2022/02/03 20:18:52;;;;;;;10.90;9.90;;;8.40;99.90;;;;;;5027776;28;20423;-69
2022/02/03 20:21:19;;;;;;;9.53;8.73;;;8.20;99.90;;;;;;5027553;28;20841;-70
2022/02/03 20:23:46;;;;;;;10.17;9.17;;;8.20;99.90;;;;;;5027599;28;20173;-70
2022/02/03 20:26:16;;;;;;;10.60;9.60;;;8.10;99.90;;;;;;5026742;28;20441;-70
2022/02/03 20:28:43;;;;;;;10.77;9.77;;;8.20;99.90;;;;;;5027830;28;20401;-70
2022/02/03 20:31:10;;;;;;;12.60;11.30;;;8.30;99.90;;;;;;5027786;28;20428;-71
2022/02/03 20:33:36;;;;;;;11.83;10.80;;;8.40;99.90;;;;;;5027319;28;20472;-70
2022/02/03 20:36:02;;;;;;;13.67;12.47;;;8.40;99.90;;;;;;5027264;28;20445;-71
2022/02/03 20:38:28;;;;;;;15.23;13.50;;;8.30;99.90;;;;;;5017956;28;20416;-71
2022/02/03 20:40:54;;;;;;;15.70;14.10;;;8.30;99.90;;;;;;5027847;28;20424;-72
2022/02/03 20:43:21;;;;;;;13.10;11.60;;;8.20;99.90;;;;;;5027656;28;20406;-73
2022/02/03 20:45:47;;;;;;;13.17;11.97;;;8.20;99.90;;;;;;5028510;28;20194;-71
2022/02/03 20:48:13;;;;;;;14.07;12.73;;;8.30;99.90;;;;;;5024727;28;20446;-71
2022/02/03 20:50:40;;;;;;;12.87;11.57;;;8.30;99.90;;;;;;5023592;28;20186;-70
2022/02/03 20:53:06;;;;;;;12.17;11.03;;;8.20;99.90;;;;;;5024804;28;21664;-71
2022/02/03 20:55:32;;;;;;;13.17;11.60;;;8.20;99.90;;;;;;5024796;28;20933;-72
2022/02/03 20:57:59;;;;;;;11.37;10.37;;;8.20;99.90;;;;;;5005801;28;20430;-70
2022/02/03 21:00:41;;;;;;;11.83;10.73;;;8.20;99.90;;;;;;5025196;28;20910;-71
2022/02/03 21:03:16;;;;;;;11.00;10.00;;;8.20;99.90;;;;;;5024717;28;21009;-73
2022/02/03 21:05:43;;;;;;;9.97;9.07;;;8.20;99.90;;;;;;5024637;28;20760;-72
2022/02/03 21:08:09;;;;;;;12.30;11.07;;;8.20;99.90;;;;;;5024845;28;20417;-70
2022/02/03 21:10:35;;;;;;;12.40;10.63;;;8.20;99.90;;;;;;5023358;28;20424;-72
2022/02/03 21:13:01;;;;;;;12.77;10.60;;;8.10;99.90;;;;;;5023489;28;20533;-70
2022/02/03 21:15:32;;;;;;;11.53;10.43;;;8.10;99.90;;;;;;5023285;28;20526;-71
2022/02/03 21:18:05;;;;;;;11.47;10.23;;;8.10;99.90;;;;;;5022916;28;20175;-70
2022/02/03 21:20:32;;;;;;;12.80;11.57;;;8.10;99.90;;;;;;5024872;28;20414;-71
2022/02/03 21:22:57;;;;;;;14.80;13.13;;;8.20;99.90;;;;;;5024471;28;20464;-72
2022/02/03 21:25:42;;;;;;;12.80;11.50;;;8.20;99.90;;;;;;5025410;28;20922;-72
2022/02/03 21:28:28;;;;;;;13.10;10.73;;;8.20;99.90;;;;;;5024374;28;20170;-69
2022/02/03 21:30:56;;;;;;;12.87;11.60;;;8.20;99.90;;;;;;5024423;28;20416;-71
2022/02/03 21:33:27;;;;;;;13.57;12.27;;;8.30;99.90;;;;;;5024599;28;20456;-71
2022/02/03 21:35:59;;;;;;;15.97;14.43;;;8.20;99.90;;;;;;5028050;28;20397;-71
2022/02/03 21:38:26;;;;;;;17.37;15.57;;;8.20;99.90;;;;;;5028100;28;21076;-70
2022/02/03 21:40:53;;;;;;;14.87;13.30;;;8.10;99.90;;;;;;5028234;28;20421;-71
2022/02/03 21:43:19;;;;;;;14.40;12.90;;;8.10;99.90;;;;;;5028696;28;20462;-70
2022/02/03 21:45:44;;;;;;;12.77;10.70;;;8.10;99.90;;;;;;5028622;28;20833;-72
2022/02/03 21:48:10;;;;;;;13.97;12.57;;;8.10;99.90;;;;;;5027126;28;20308;-70
2022/02/03 21:50:39;;;;;;;12.77;11.57;;;8.10;99.90;;;;;;5030408;28;20203;-71
2022/02/03 21:53:15;;;;;;;17.93;14.93;;;8.10;99.90;;;;;;5031895;28;20284;-71
2022/02/03 21:55:42;;;;;;;13.23;12.00;;;8.10;99.90;;;;;;5030872;28;20498;-70
2022/02/03 21:58:08;;;;;;;15.80;14.20;;;8.10;99.90;;;;;;5031430;28;20791;-70
2022/02/03 22:00:34;;;;;;;14.70;13.20;;;8.10;99.90;;;;;;5017411;28;20428;-71
2022/02/03 22:02:59;;;;;;;14.80;13.47;;;8.00;99.90;;;;;;5027865;28;20206;-69
2022/02/03 22:05:25;;;;;;;16.33;14.53;;;8.10;99.90;;;;;;5028574;28;20776;-70
2022/02/03 22:07:51;;;;;;;12.50;10.57;;;8.00;99.90;;;;;;5027994;28;21051;-69
2022/02/03 22:10:20;;;;;;;14.83;12.30;;;7.90;99.90;;;;;;5028578;28;20187;-70
2022/02/03 22:12:47;;;;;;;12.23;11.00;;;7.90;99.90;;;;;;5029675;28;20227;-71
2022/02/03 22:15:13;;;;;;;14.23;12.70;;;8.00;99.90;;;;;;5030682;28;20419;-71
2022/02/03 22:17:39;;;;;;;12.90;11.60;;;8.00;99.90;;;;;;5078835;22;21581;-74
2022/02/03 22:20:10;;;;;;;13.33;11.93;;;8.00;99.90;;;;;;5028265;28;20939;-72
2022/02/03 22:44:41;;;;;;;12.50;10.80;;;7.90;99.90;;;;;;5045608;28;20650;-74
2022/02/03 22:49:36;;;;;;;12.67;11.37;;;7.90;99.90;;;;;;5045234;28;20424;-74
2022/02/03 22:52:01;;;;;;;13.70;12.30;;;8.00;99.90;;;;;;5044357;28;20990;-73
2022/02/03 22:54:27;;;;;;;12.33;11.03;;;8.10;99.90;;;;;;5027250;28;20759;-73
2022/02/03 22:56:53;;;;;;;14.30;12.80;;;8.10;99.90;;;;;;5044060;28;20275;-74
2022/02/03 23:01:46;;;;;;;13.33;11.93;;;8.10;99.90;;;;;;5044933;28;20182;-71
2022/02/03 23:04:16;;;;;;;13.93;12.43;;;8.10;99.90;;;;;;5027148;28;20433;-73
2022/02/03 23:06:41;;;;;;;15.83;12.90;;;8.10;99.90;;;;;;5045068;28;20202;-72
2022/02/03 23:09:16;;;;;;;14.90;12.13;;;7.80;99.90;;;;;;5027016;28;20427;-72
2022/02/03 23:14:26;;;;;;;13.80;12.40;;;7.70;99.90;;;;;;5045152;28;20484;-72
2022/02/03 23:21:54;;;;;;;13.87;12.53;;;7.70;99.90;;;;;;5044950;28;20164;-73
2022/02/03 23:24:21;;;;;;;15.23;13.63;;;7.60;99.90;;;;;;5026066;28;20432;-73
2022/02/03 23:27:01;;;;;;;14.40;12.50;;;7.70;99.90;;;;;;5044080;28;20447;-73
2022/02/03 23:29:27;;;;;;;14.87;13.37;;;7.80;99.90;;;;;;5044520;28;20413;-73
2022/02/03 23:32:13;;;;;;;12.77;11.63;;;7.80;99.90;;;;;;5043771;28;20455;-73
2022/02/03 23:34:41;;;;;;;12.27;10.97;;;7.90;99.90;;;;;;5043705;28;20197;-72
2022/02/03 23:37:07;;;;;;;12.63;11.33;;;7.90;99.90;;;;;;5043652;28;21005;-73
2022/02/03 23:39:47;;;;;;;13.13;11.83;;;7.90;99.90;;;;;;5044222;28;20412;-73
2022/02/03 23:42:53;;;;;;;11.77;10.60;;;7.90;99.90;;;;;;5044491;28;20202;-73
